Time;durP1;ratioP1;P1;durP2;ratioP2;P2;SDS_P1;SDS_P2;PMS_P1;PMS_P2;Temp;Humidity;BMP_temperature;BMP_pressure;BME280_temperature;BME280_humidity;BME280_pressure;Samples;Min_cycle;Max_cycle;Signal;HPM_P1;HPM_P2
2022/06/07 00:01:04;;;;;;;12.88;5.53;;;12.30;99.90;;;;;;5041241;28;20055;-76
2022/06/07 00:03:30;;;;;;;10.23;5.68;;;12.30;99.90;;;;;;5044124;28;20060;-75
2022/06/07 00:05:56;;;;;;;12.02;5.75;;;12.30;99.90;;;;;;5046103;28;20068;-76
2022/06/07 00:08:22;;;;;;;12.38;5.65;;;12.30;99.90;;;;;;5044054;28;20440;-76
2022/06/07 00:10:49;;;;;;;12.55;5.60;;;12.30;99.90;;;;;;5044225;28;20053;-77
2022/06/07 00:13:16;;;;;;;13.30;5.80;;;12.30;99.90;;;;;;5044219;28;20056;-76
2022/06/07 00:15:43;;;;;;;15.60;5.68;;;12.30;99.90;;;;;;5044431;28;20049;-77
2022/06/07 00:18:09;;;;;;;10.95;5.07;;;12.30;99.90;;;;;;5046925;28;20089;-76
2022/06/07 00:20:39;;;;;;;9.88;5.60;;;12.30;99.90;;;;;;5038614;28;20060;-77
2022/06/07 00:23:08;;;;;;;14.38;5.57;;;12.30;99.90;;;;;;5042386;28;20048;-77
2022/06/07 00:25:33;;;;;;;10.55;5.15;;;12.30;99.90;;;;;;5047623;28;20174;-76
2022/06/07 00:27:59;;;;;;;12.80;5.65;;;12.30;99.90;;;;;;5046748;28;20124;-77
2022/06/07 00:30:26;;;;;;;11.55;5.82;;;12.40;99.90;;;;;;5044694;28;20068;-76
2022/06/07 00:32:52;;;;;;;11.63;5.25;;;12.40;99.90;;;;;;5045392;28;20052;-77
2022/06/07 00:35:18;;;;;;;11.15;5.50;;;12.40;99.90;;;;;;5047458;28;20401;-77
2022/06/07 00:37:43;;;;;;;13.50;6.45;;;12.40;99.90;;;;;;5045622;28;20385;-77
2022/06/07 00:40:10;;;;;;;11.20;5.20;;;12.30;99.90;;;;;;5044349;28;20049;-77
2022/06/07 00:42:36;;;;;;;15.80;6.22;;;12.50;99.90;;;;;;5043082;28;20492;-77
2022/06/07 00:45:02;;;;;;;12.43;6.63;;;12.40;99.90;;;;;;5044637;28;20040;-77
2022/06/07 00:47:31;;;;;;;11.73;6.18;;;12.40;99.90;;;;;;5047139;28;20041;-76
2022/06/07 00:50:08;;;;;;;13.23;8.15;;;12.40;99.90;;;;;;5044896;28;20124;-75
2022/06/07 00:52:34;;;;;;;10.50;7.55;;;12.40;99.90;;;;;;5037817;28;20041;-75
2022/06/07 00:55:03;;;;;;;10.75;7.20;;;12.40;99.90;;;;;;5042862;28;20489;-77
2022/06/07 00:57:28;;;;;;;15.02;7.10;;;12.30;99.90;;;;;;5043322;28;20040;-75
2022/06/07 00:59:54;;;;;;;15.23;7.13;;;12.40;99.90;;;;;;5047000;28;20041;-75
2022/06/07 01:02:21;;;;;;;16.38;7.45;;;12.40;99.90;;;;;;5047269;28;20389;-77
2022/06/07 01:04:47;;;;;;;12.38;7.10;;;12.60;99.90;;;;;;5048193;28;20107;-76
2022/06/07 01:12:40;;;;;;;18.00;7.38;;;12.40;99.90;;;;;;5037753;28;20342;-76
2022/06/07 01:15:08;;;;;;;15.45;7.07;;;12.40;99.90;;;;;;5046330;28;20103;-76
2022/06/07 01:17:33;;;;;;;14.88;6.97;;;12.30;99.90;;;;;;5048771;28;20440;-77
2022/06/07 01:19:59;;;;;;;15.60;7.03;;;12.40;99.90;;;;;;5050511;28;20069;-77
2022/06/07 01:22:25;;;;;;;21.55;7.70;;;12.40;99.90;;;;;;5049187;28;20045;-75
2022/06/07 01:24:52;;;;;;;17.10;7.45;;;12.40;99.90;;;;;;5048380;28;20053;-78
2022/06/07 01:27:17;;;;;;;14.45;7.05;;;12.40;99.90;;;;;;5046689;28;20041;-75
2022/06/07 01:29:43;;;;;;;16.63;6.85;;;12.30;99.90;;;;;;5046791;28;20461;-75
2022/06/07 01:32:10;;;;;;;13.05;6.95;;;12.40;99.90;;;;;;5044936;28;20045;-77
2022/06/07 01:34:43;;;;;;;17.10;7.80;;;12.40;99.90;;;;;;5043975;28;20057;-76
2022/06/07 01:37:10;;;;;;;16.25;7.38;;;12.40;99.90;;;;;;5047450;28;20547;-77
2022/06/07 01:42:21;;;;;;;13.00;7.03;;;12.40;99.90;;;;;;5036119;28;20046;-76
2022/06/07 01:44:48;;;;;;;13.50;6.88;;;12.40;99.90;;;;;;5042067;28;20105;-75
2022/06/07 01:47:18;;;;;;;12.32;7.25;;;12.50;99.90;;;;;;5048498;28;20107;-76
2022/06/07 01:49:44;;;;;;;10.70;6.63;;;12.50;99.90;;;;;;5049727;28;20053;-76
2022/06/07 01:52:11;;;;;;;14.85;7.85;;;12.50;99.90;;;;;;5046206;28;20477;-76
2022/06/07 01:54:36;;;;;;;15.35;6.95;;;12.50;99.90;;;;;;5034872;28;20061;-76
2022/06/07 01:57:05;;;;;;;12.95;7.30;;;12.50;99.90;;;;;;5043766;28;20045;-76
2022/06/07 01:59:31;;;;;;;12.57;7.30;;;12.50;99.90;;;;;;5049479;28;20332;-76
2022/06/07 02:01:57;;;;;;;14.45;6.50;;;12.60;99.90;;;;;;5048048;28;20051;-76
2022/06/07 02:04:23;;;;;;;14.77;7.13;;;12.50;99.90;;;;;;5051212;28;20044;-75
2022/06/07 02:06:52;;;;;;;13.65;7.65;;;12.50;99.90;;;;;;5048544;28;20041;-75
2022/06/07 02:09:19;;;;;;;14.45;6.88;;;12.60;99.90;;;;;;5048827;28;20472;-77
2022/06/07 02:11:45;;;;;;;14.23;7.20;;;12.60;99.90;;;;;;5081163;28;20068;-75
2022/06/07 02:14:12;;;;;;;13.88;7.15;;;12.60;99.90;;;;;;5046164;28;20132;-75
2022/06/07 02:16:37;;;;;;;11.25;7.07;;;12.60;99.90;;;;;;5047743;28;20064;-76
2022/06/07 02:19:04;;;;;;;14.73;7.30;;;12.70;99.90;;;;;;5045895;28;20037;-75
2022/06/07 02:21:30;;;;;;;12.57;7.45;;;12.70;99.90;;;;;;5048695;28;20045;-75
2022/06/07 02:23:55;;;;;;;14.98;7.05;;;12.60;99.90;;;;;;5046719;28;20045;-77
2022/06/07 02:26:30;;;;;;;11.27;6.82;;;12.70;99.90;;;;;;5046379;28;20373;-76
2022/06/07 02:29:01;;;;;;;13.18;7.57;;;12.70;99.90;;;;;;5046774;28;20045;-76
2022/06/07 02:31:29;;;;;;;19.27;8.45;;;12.70;99.90;;;;;;5041530;28;20064;-76
2022/06/07 02:33:57;;;;;;;14.57;7.65;;;12.70;99.90;;;;;;5044453;28;20052;-75
2022/06/07 02:36:23;;;;;;;13.35;6.72;;;12.70;99.90;;;;;;5045735;28;20115;-75
2022/06/07 02:38:49;;;;;;;12.38;7.07;;;12.70;99.90;;;;;;5047011;28;20120;-75
2022/06/07 02:41:21;;;;;;;17.33;6.95;;;12.80;99.90;;;;;;5048734;28;20056;-76
2022/06/07 02:43:47;;;;;;;12.70;6.78;;;12.80;99.90;;;;;;5048263;28;20079;-77
2022/06/07 02:46:12;;;;;;;16.20;7.30;;;12.80;99.90;;;;;;5045859;28;20088;-75
2022/06/07 02:48:38;;;;;;;14.23;6.53;;;12.80;99.90;;;;;;5047601;28;20060;-75
2022/06/07 02:51:04;;;;;;;13.55;7.13;;;12.80;99.90;;;;;;5048249;28;20045;-75
2022/06/07 02:53:30;;;;;;;16.27;7.93;;;12.80;99.90;;;;;;5056192;28;20044;-75
2022/06/07 02:55:56;;;;;;;20.92;8.32;;;12.80;99.90;;;;;;5047248;28;20057;-76
2022/06/07 02:58:23;;;;;;;14.00;7.05;;;12.80;99.90;;;;;;5047687;28;20512;-77
2022/06/07 03:00:49;;;;;;;12.52;7.10;;;12.70;99.90;;;;;;5045129;28;20095;-77
2022/06/07 03:03:15;;;;;;;14.63;7.28;;;12.90;99.90;;;;;;5046307;28;20041;-76
2022/06/07 03:05:41;;;;;;;15.18;7.03;;;12.80;99.90;;;;;;5035567;28;20045;-75
2022/06/07 03:08:07;;;;;;;12.82;6.72;;;12.80;99.90;;;;;;5044314;28;20044;-76
2022/06/07 03:10:34;;;;;;;13.98;7.40;;;12.80;99.90;;;;;;5046569;28;20044;-77
2022/06/07 03:13:00;;;;;;;11.57;7.18;;;12.80;99.90;;;;;;5046624;28;20040;-75
2022/06/07 03:15:26;;;;;;;16.33;7.90;;;12.80;99.90;;;;;;5039826;28;20119;-76
2022/06/07 03:17:52;;;;;;;12.98;7.55;;;12.80;99.90;;;;;;5046388;28;20345;-76
2022/06/07 03:20:18;;;;;;;13.00;8.25;;;12.80;99.90;;;;;;5073452;28;20045;-77
2022/06/07 03:22:43;;;;;;;16.17;8.07;;;12.70;99.90;;;;;;5034686;28;20060;-77
2022/06/07 03:25:11;;;;;;;15.20;8.15;;;12.80;99.90;;;;;;5047460;28;20127;-76
2022/06/07 03:27:37;;;;;;;15.90;7.05;;;12.80;99.90;;;;;;5035135;28;20505;-77
2022/06/07 03:30:06;;;;;;;14.23;7.82;;;12.80;99.90;;;;;;5042269;28;20052;-76
2022/06/07 03:32:33;;;;;;;10.07;7.63;;;12.80;99.90;;;;;;5045640;28;20064;-75
2022/06/07 03:34:59;;;;;;;17.75;7.75;;;12.90;99.90;;;;;;5034809;28;20095;-75
2022/06/07 03:37:24;;;;;;;14.88;7.85;;;12.80;99.90;;;;;;5044921;28;20041;-76
2022/06/07 03:39:51;;;;;;;11.73;7.28;;;12.80;99.90;;;;;;5047276;28;20053;-76
2022/06/07 03:42:17;;;;;;;11.35;5.95;;;12.80;99.90;;;;;;5033333;28;20392;-76
2022/06/07 03:44:48;;;;;;;9.63;5.90;;;12.90;99.90;;;;;;5044231;28;20107;-75
2022/06/07 03:47:15;;;;;;;17.53;6.73;;;12.90;99.90;;;;;;5044906;28;20119;-77
2022/06/07 03:49:40;;;;;;;10.65;6.75;;;12.80;99.90;;;;;;5040948;28;20049;-78
2022/06/07 03:52:06;;;;;;;15.23;7.82;;;12.80;99.90;;;;;;5038729;28;20044;-76
2022/06/07 03:54:32;;;;;;;14.63;7.07;;;12.80;99.90;;;;;;5042771;28;20073;-76
2022/06/07 03:56:58;;;;;;;15.23;7.80;;;12.80;99.90;;;;;;5044153;28;20452;-76
2022/06/07 03:59:24;;;;;;;17.80;7.05;;;12.80;99.90;;;;;;5044165;28;20040;-76
2022/06/07 04:01:50;;;;;;;11.55;6.75;;;12.80;99.90;;;;;;5044444;28;20045;-76
2022/06/07 04:04:16;;;;;;;16.23;7.55;;;12.70;99.90;;;;;;5045787;28;20040;-76
2022/06/07 04:09:32;;;;;;;16.13;7.70;;;12.70;99.90;;;;;;5044409;28;20080;-76
2022/06/07 04:11:57;;;;;;;17.77;7.75;;;12.70;99.90;;;;;;5033593;28;20543;-76
2022/06/07 04:14:23;;;;;;;17.52;8.77;;;12.70;99.90;;;;;;5045248;28;20040;-77
2022/06/07 04:16:48;;;;;;;17.45;9.45;;;12.60;99.90;;;;;;5040507;28;20045;-76
2022/06/07 04:19:14;;;;;;;15.20;7.68;;;12.60;99.90;;;;;;5036132;28;20508;-77
2022/06/07 04:21:40;;;;;;;15.95;7.70;;;12.60;99.90;;;;;;5039459;28;20912;-76
2022/06/07 04:24:06;;;;;;;13.88;7.97;;;12.60;99.90;;;;;;5043389;28;20392;-75
2022/06/07 04:26:32;;;;;;;15.38;7.57;;;12.60;99.90;;;;;;5046551;28;20037;-76
2022/06/07 04:28:58;;;;;;;11.70;7.53;;;12.50;99.90;;;;;;5040083;28;20072;-76
2022/06/07 04:31:25;;;;;;;15.32;8.25;;;12.50;99.90;;;;;;5031921;28;20037;-76
2022/06/07 04:33:54;;;;;;;15.57;6.68;;;12.40;99.90;;;;;;5044200;28;20049;-76
2022/06/07 04:36:22;;;;;;;16.02;6.63;;;12.40;99.90;;;;;;5043724;28;20049;-76
2022/06/07 04:38:50;;;;;;;12.63;6.03;;;12.40;99.90;;;;;;5050446;28;20634;-77
2022/06/07 04:41:18;;;;;;;13.10;5.97;;;12.30;99.90;;;;;;5050576;28;20045;-76
2022/06/07 04:43:44;;;;;;;11.07;5.10;;;12.30;99.90;;;;;;5045876;28;20048;-75
2022/06/07 04:46:14;;;;;;;11.88;5.63;;;12.20;99.90;;;;;;5044844;28;20081;-76
2022/06/07 04:48:40;;;;;;;11.65;5.57;;;12.20;99.90;;;;;;5037946;28;20041;-75
2022/06/07 04:51:09;;;;;;;10.98;5.90;;;12.20;99.90;;;;;;5046677;28;20041;-75
2022/06/07 04:53:35;;;;;;;12.38;6.43;;;12.20;99.90;;;;;;5034398;28;20052;-76
2022/06/07 04:56:10;;;;;;;14.57;6.25;;;12.20;99.90;;;;;;5047731;28;20052;-77
2022/06/07 04:58:36;;;;;;;13.65;6.38;;;12.20;99.90;;;;;;5046044;28;20045;-76
2022/06/07 05:01:08;;;;;;;14.85;5.78;;;12.10;99.90;;;;;;5045771;28;20044;-77
2022/06/07 05:03:34;;;;;;;10.60;5.50;;;12.10;99.90;;;;;;5038749;28;20033;-77
2022/06/07 05:05:59;;;;;;;14.43;6.45;;;12.20;99.90;;;;;;5042887;28;20045;-76
2022/06/07 05:08:25;;;;;;;15.52;5.15;;;12.20;99.90;;;;;;5048624;28;20045;-78
2022/06/07 05:10:53;;;;;;;20.30;6.55;;;12.20;99.90;;;;;;5046316;28;20059;-78
2022/06/07 05:13:19;;;;;;;12.88;6.50;;;12.20;99.90;;;;;;5035099;28;20056;-77
2022/06/07 05:15:55;;;;;;;11.30;5.35;;;12.20;99.90;;;;;;5045120;28;20041;-76
2022/06/07 05:18:21;;;;;;;14.88;6.03;;;12.20;99.90;;;;;;5042888;28;20033;-76
2022/06/07 05:20:46;;;;;;;13.15;6.15;;;12.20;99.90;;;;;;5046852;28;20515;-77
2022/06/07 05:23:12;;;;;;;14.07;6.03;;;12.30;99.90;;;;;;5048026;28;20132;-77
2022/06/07 05:25:38;;;;;;;10.02;6.00;;;12.30;99.90;;;;;;5039668;28;20385;-77
2022/06/07 05:28:04;;;;;;;10.40;6.00;;;12.30;99.90;;;;;;5035989;28;20095;-77
2022/06/07 05:30:30;;;;;;;11.35;5.82;;;12.30;99.90;;;;;;5043897;28;20037;-76
2022/06/07 05:32:56;;;;;;;14.27;6.20;;;12.40;99.90;;;;;;5047697;28;20064;-78
2022/06/07 05:35:21;;;;;;;14.10;6.00;;;12.40;99.90;;;;;;5039950;28;20144;-77
2022/06/07 05:37:47;;;;;;;14.30;5.90;;;12.40;99.90;;;;;;5034965;28;20106;-77
2022/06/07 05:40:13;;;;;;;10.50;5.60;;;12.40;99.90;;;;;;5043949;28;20053;-77
2022/06/07 05:42:38;;;;;;;12.95;4.78;;;12.50;99.90;;;;;;5075481;28;20045;-76
2022/06/07 05:45:04;;;;;;;12.98;5.85;;;12.50;99.90;;;;;;5049607;28;20451;-76
2022/06/07 05:47:30;;;;;;;11.05;5.80;;;12.50;99.90;;;;;;5046780;28;20047;-76
2022/06/07 05:49:56;;;;;;;13.63;5.00;;;12.50;99.90;;;;;;5048497;28;20529;-78
2022/06/07 05:52:22;;;;;;;10.27;4.82;;;12.50;99.90;;;;;;5047495;28;20341;-77
2022/06/07 05:54:48;;;;;;;11.63;5.28;;;12.50;99.90;;;;;;5043058;28;20045;-77
2022/06/07 05:57:14;;;;;;;13.38;5.57;;;12.50;99.90;;;;;;5045821;28;20045;-76
2022/06/07 05:59:40;;;;;;;14.88;5.15;;;12.50;99.90;;;;;;5041329;28;20079;-76
2022/06/07 06:02:06;;;;;;;8.43;4.80;;;12.50;99.90;;;;;;5042454;28;20049;-76
2022/06/07 06:04:32;;;;;;;9.90;4.50;;;12.40;99.90;;;;;;5037563;28;20249;-77
2022/06/07 06:06:58;;;;;;;15.07;4.97;;;12.40;99.90;;;;;;5045834;28;20695;-76
2022/06/07 06:12:09;;;;;;;11.20;4.03;;;12.40;99.90;;;;;;5071747;28;20045;-80
2022/06/07 06:14:35;;;;;;;9.52;3.80;;;12.40;99.90;;;;;;5049542;28;20510;-79
2022/06/07 06:17:01;;;;;;;6.97;2.95;;;12.40;99.90;;;;;;5049222;28;20117;-79
2022/06/07 06:19:27;;;;;;;8.82;3.33;;;12.30;99.90;;;;;;5049907;28;20041;-79
2022/06/07 06:21:53;;;;;;;10.50;3.38;;;12.30;99.90;;;;;;5047146;28;20063;-79
2022/06/07 06:24:23;;;;;;;5.40;2.92;;;12.30;99.90;;;;;;5046412;28;20038;-79
2022/06/07 06:26:48;;;;;;;7.97;2.70;;;12.30;99.90;;;;;;5042879;28;20152;-79
2022/06/07 06:29:14;;;;;;;5.32;2.70;;;12.30;99.90;;;;;;5044455;28;20110;-77
2022/06/07 06:31:40;;;;;;;5.40;2.83;;;12.20;99.90;;;;;;5038365;28;20049;-79
2022/06/07 06:34:07;;;;;;;6.70;2.58;;;12.20;99.90;;;;;;5048806;28;20041;-78
2022/06/07 06:36:34;;;;;;;4.90;2.13;;;12.10;99.90;;;;;;5047918;28;20049;-80
2022/06/07 06:39:00;;;;;;;5.22;2.00;;;12.20;99.90;;;;;;5048562;28;20480;-77
2022/06/07 06:41:33;;;;;;;10.05;2.65;;;12.10;99.90;;;;;;5043828;28;20056;-79
2022/06/07 06:44:01;;;;;;;7.93;2.28;;;12.20;99.90;;;;;;5072152;28;20044;-81
2022/06/07 06:46:33;;;;;;;9.45;2.15;;;12.10;99.90;;;;;;5035208;28;20084;-80
2022/06/07 06:49:00;;;;;;;5.57;2.25;;;12.10;99.90;;;;;;5043768;28;20040;-81
2022/06/07 06:51:28;;;;;;;6.75;1.98;;;12.10;99.90;;;;;;5046231;28;20041;-82
2022/06/07 06:53:58;;;;;;;6.78;2.35;;;12.10;99.90;;;;;;5040711;28;20116;-80
2022/06/07 06:56:25;;;;;;;3.72;2.03;;;12.10;99.90;;;;;;5039166;28;20067;-80
2022/06/07 06:58:52;;;;;;;3.35;1.83;;;12.20;99.90;;;;;;5047921;28;20045;-80
2022/06/07 07:01:27;;;;;;;6.72;2.20;;;12.20;99.90;;;;;;5035142;28;20045;-81
2022/06/07 07:03:53;;;;;;;7.38;2.22;;;12.30;99.90;;;;;;5044022;28;20044;-81
2022/06/07 07:06:20;;;;;;;7.47;2.40;;;12.30;99.90;;;;;;5046710;28;20766;-80
2022/06/07 07:08:47;;;;;;;7.72;2.60;;;12.40;99.90;;;;;;5047515;28;20040;-80
2022/06/07 07:11:35;;;;;;;8.05;2.80;;;12.40;99.90;;;;;;5036718;28;20068;-79
2022/06/07 07:14:02;;;;;;;8.30;2.58;;;12.40;99.90;;;;;;5031039;28;20052;-80
2022/06/07 07:16:33;;;;;;;11.30;2.20;;;12.50;99.90;;;;;;5040985;28;20159;-79
2022/06/07 07:19:00;;;;;;;11.98;3.90;;;12.50;99.90;;;;;;5048729;28;20200;-79
2022/06/07 07:21:33;;;;;;;7.63;2.17;;;12.50;99.90;;;;;;5039169;28;20056;-80
2022/06/07 07:24:00;;;;;;;6.50;2.22;;;12.50;99.90;;;;;;5069643;28;20487;-79
2022/06/07 07:26:28;;;;;;;8.57;2.42;;;12.60;99.90;;;;;;5033961;28;20057;-79
2022/06/07 07:28:54;;;;;;;8.65;1.95;;;12.60;99.90;;;;;;5043644;28;20048;-79
2022/06/07 07:31:31;;;;;;;6.45;1.73;;;12.70;99.90;;;;;;5042140;28;20045;-79
2022/06/07 07:33:59;;;;;;;9.50;2.08;;;12.70;99.90;;;;;;5040998;28;20063;-78
2022/06/07 07:36:26;;;;;;;8.80;2.20;;;12.80;99.90;;;;;;5037789;28;20174;-78
2022/06/07 07:38:51;;;;;;;10.63;1.92;;;12.90;99.90;;;;;;5038414;28;20401;-78
2022/06/07 07:41:22;;;;;;;8.65;1.75;;;12.90;99.90;;;;;;5039852;28;20052;-78
2022/06/07 07:43:49;;;;;;;9.00;2.13;;;13.10;99.90;;;;;;5045798;28;20079;-78
2022/06/07 07:46:19;;;;;;;14.27;2.55;;;13.00;99.90;;;;;;5040067;28;20144;-78
2022/06/07 07:48:45;;;;;;;17.35;3.28;;;13.10;99.90;;;;;;5034811;28;20042;-79
2022/06/07 07:51:20;;;;;;;15.07;2.85;;;13.20;99.90;;;;;;5040315;28;20143;-78
2022/06/07 07:53:47;;;;;;;11.68;2.40;;;13.20;99.90;;;;;;5041948;28;20040;-79
2022/06/07 07:56:14;;;;;;;8.65;1.75;;;13.30;99.90;;;;;;5047310;28;20390;-79
2022/06/07 07:58:41;;;;;;;8.70;2.20;;;13.30;99.90;;;;;;5049050;28;20041;-79
2022/06/07 08:01:12;;;;;;;11.30;1.73;;;13.20;99.90;;;;;;5047156;28;20072;-79
2022/06/07 08:03:39;;;;;;;10.65;1.88;;;13.20;99.90;;;;;;5047135;28;20064;-80
2022/06/07 08:06:12;;;;;;;5.95;1.58;;;13.20;99.90;;;;;;5047763;28;20064;-79
2022/06/07 08:08:38;;;;;;;9.15;1.88;;;13.10;99.90;;;;;;5043396;28;20059;-80
2022/06/07 08:11:04;;;;;;;8.50;1.65;;;13.20;99.90;;;;;;5046711;28;20045;-79
2022/06/07 08:13:30;;;;;;;7.75;2.28;;;13.10;99.90;;;;;;5046858;28;20045;-80
2022/06/07 08:15:56;;;;;;;14.20;2.58;;;13.20;99.90;;;;;;5045625;28;20481;-78
2022/06/07 08:18:23;;;;;;;9.10;1.85;;;13.20;99.90;;;;;;5046118;28;20044;-78
2022/06/07 08:20:49;;;;;;;12.10;2.22;;;13.10;99.90;;;;;;5047779;28;20570;-78
2022/06/07 08:23:15;;;;;;;9.70;1.85;;;13.20;99.90;;;;;;5043970;28;20041;-80
2022/06/07 08:25:40;;;;;;;4.60;1.20;;;13.20;99.90;;;;;;5047064;28;20055;-78
2022/06/07 08:28:06;;;;;;;8.60;1.50;;;13.20;99.90;;;;;;5044301;28;20068;-79
2022/06/07 08:30:33;;;;;;;9.68;1.77;;;13.30;99.90;;;;;;5045690;28;20041;-79
2022/06/07 08:37:32;;;;;;;11.05;2.03;;;13.40;99.90;;;;;;5037233;28;20155;-80
2022/06/07 08:38:30;;;;;;;8.32;2.10;;;13.40;99.90;;;;;;5034057;28;20033;-79
2022/06/07 08:40:56;;;;;;;6.70;1.75;;;13.50;99.90;;;;;;5036836;28;20052;-84
2022/06/07 08:43:23;;;;;;;8.65;1.80;;;13.60;99.90;;;;;;5039391;28;20531;-81
2022/06/07 08:45:50;;;;;;;11.68;1.95;;;13.60;99.90;;;;;;5030219;28;20053;-79
2022/06/07 08:48:22;;;;;;;6.18;1.95;;;13.80;99.90;;;;;;5031498;28;20124;-81
2022/06/07 08:50:58;;;;;;;7.55;1.70;;;13.80;99.90;;;;;;5034350;28;20728;-82
2022/06/07 08:53:54;;;;;;;7.10;1.63;;;13.90;99.90;;;;;;5038668;28;20046;-81
2022/06/07 08:56:27;;;;;;;11.85;2.28;;;14.00;99.90;;;;;;5028363;28;20158;-79
2022/06/07 08:58:57;;;;;;;7.35;1.60;;;14.10;99.90;;;;;;5032793;28;20059;-81
2022/06/07 09:01:41;;;;;;;9.43;2.00;;;14.20;99.90;;;;;;5066825;28;20188;-80
2022/06/07 09:04:29;;;;;;;11.65;1.83;;;14.30;99.90;;;;;;5038219;28;20059;-78
2022/06/07 09:07:17;;;;;;;7.80;1.70;;;14.30;99.90;;;;;;5037350;28;20048;-80
2022/06/07 09:12:32;;;;;;;7.03;1.58;;;14.30;99.90;;;;;;5037533;28;20127;-79
2022/06/07 09:15:19;;;;;;;8.98;1.90;;;14.40;99.90;;;;;;5063467;28;20139;-77
2022/06/07 09:17:53;;;;;;;9.75;1.80;;;14.40;99.90;;;;;;5032449;28;20044;-77
2022/06/07 09:20:19;;;;;;;10.68;1.67;;;14.40;99.90;;;;;;5045818;28;20464;-78
2022/06/07 09:22:44;;;;;;;7.70;1.80;;;14.40;99.90;;;;;;5042547;28;20080;-77
2022/06/07 09:25:35;;;;;;;12.82;2.17;;;14.40;99.90;;;;;;5064660;28;20045;-77
2022/06/07 09:28:03;;;;;;;8.25;1.83;;;14.40;99.90;;;;;;5044610;28;20053;-78
2022/06/07 09:30:45;;;;;;;11.27;1.80;;;14.20;99.90;;;;;;5048906;28;20041;-77
2022/06/07 09:33:50;;;;;;;6.13;1.55;;;14.20;99.90;;;;;;5039600;28;20072;-77
2022/06/07 09:36:21;;;;;;;12.38;1.52;;;14.20;99.90;;;;;;5047070;28;20065;-77
2022/06/07 09:38:51;;;;;;;8.52;1.85;;;14.20;99.90;;;;;;5042203;28;20044;-77
2022/06/07 09:41:36;;;;;;;9.70;1.50;;;14.10;99.90;;;;;;5047659;28;20095;-78
2022/06/07 09:44:25;;;;;;;5.55;1.77;;;14.00;99.90;;;;;;5042910;28;20506;-76
2022/06/07 09:47:11;;;;;;;4.28;1.17;;;13.90;99.90;;;;;;5035521;28;20083;-77
2022/06/07 09:50:00;;;;;;;12.82;1.90;;;13.90;99.90;;;;;;5050849;28;20044;-77
2022/06/07 09:52:31;;;;;;;11.32;2.10;;;13.90;99.90;;;;;;5048728;28;20441;-77
2022/06/07 09:55:05;;;;;;;;;;;13.90;99.90;;;;;;5050120;28;20060;-78
2022/06/07 09:57:35;;;;;;;7.78;1.58;;;13.90;99.90;;;;;;5046570;28;19920;-77
2022/06/07 10:00:16;;;;;;;9.10;1.98;;;13.90;99.90;;;;;;5046467;28;20071;-78
2022/06/07 10:02:48;;;;;;;7.85;1.45;;;13.90;99.90;;;;;;5060650;28;20065;-78
2022/06/07 10:05:16;;;;;;;6.90;1.52;;;14.00;99.90;;;;;;5049322;28;20056;-78
2022/06/07 10:07:53;;;;;;;11.77;2.10;;;14.10;99.90;;;;;;5032181;28;20060;-78
2022/06/07 10:10:50;;;;;;;11.75;2.92;;;14.10;99.90;;;;;;5044483;28;20052;-78
2022/06/07 10:13:44;;;;;;;8.43;1.30;;;14.20;99.90;;;;;;5047328;28;20087;-77
2022/06/07 10:16:31;;;;;;;11.10;1.80;;;14.30;99.90;;;;;;5045740;28;20182;-78
2022/06/07 10:19:21;;;;;;;11.32;1.50;;;14.30;99.90;;;;;;5064627;28;20049;-78
2022/06/07 10:22:17;;;;;;;10.63;1.75;;;14.30;99.90;;;;;;5046730;28;20049;-77
2022/06/07 10:24:49;;;;;;;5.82;1.25;;;14.30;99.90;;;;;;5046305;28;20044;-77
2022/06/07 10:27:41;;;;;;;7.32;1.50;;;14.30;99.90;;;;;;5049720;28;20410;-77
2022/06/07 10:30:18;;;;;;;8.07;1.65;;;14.30;99.90;;;;;;5047406;28;20048;-78
2022/06/07 10:33:29;;;;;;;12.77;1.58;;;14.40;99.90;;;;;;5035893;28;20157;-79
2022/06/07 10:36:02;;;;;;;9.27;1.77;;;14.40;99.90;;;;;;4992532;28;20065;-79
2022/06/07 10:38:43;;;;;;;8.85;1.75;;;14.40;99.90;;;;;;5009151;28;20042;-79
2022/06/07 10:41:32;;;;;;;10.23;2.42;;;14.40;99.90;;;;;;5009425;28;20080;-78
2022/06/07 10:44:06;;;;;;;10.50;1.67;;;14.40;99.90;;;;;;5043409;28;20044;-78
2022/06/07 10:46:37;;;;;;;5.88;1.40;;;14.40;99.90;;;;;;5042353;28;20039;-77
2022/06/07 10:49:12;;;;;;;3.92;1.02;;;14.40;99.90;;;;;;5047694;28;20080;-77
2022/06/07 10:55:04;;;;;;;7.63;1.25;;;14.40;99.90;;;;;;5061314;28;20120;-78
2022/06/07 10:57:35;;;;;;;6.35;1.38;;;14.40;99.90;;;;;;5043392;28;20052;-77
2022/06/07 11:00:18;;;;;;;11.43;1.63;;;14.40;99.90;;;;;;5041844;28;20043;-76
2022/06/07 11:03:06;;;;;;;10.27;2.08;;;14.40;99.90;;;;;;5047855;28;20040;-79
2022/06/07 11:11:33;;;;;;;10.23;1.40;;;14.40;99.90;;;;;;5028129;28;20136;-77
2022/06/07 11:14:09;;;;;;;5.07;1.45;;;14.30;99.90;;;;;;5030171;28;20057;-77
2022/06/07 11:17:03;;;;;;;7.78;1.40;;;14.40;99.90;;;;;;5028001;28;20457;-78
2022/06/07 11:19:30;;;;;;;5.55;1.20;;;14.50;99.90;;;;;;5046166;28;20091;-78
2022/06/07 11:22:00;;;;;;;7.43;1.80;;;14.50;99.90;;;;;;5036909;28;20048;-77
2022/06/07 11:24:35;;;;;;;7.70;1.40;;;14.60;99.90;;;;;;5045669;28;20155;-78
2022/06/07 11:27:07;;;;;;;5.95;1.67;;;14.70;99.90;;;;;;5047405;28;20057;-77
2022/06/07 11:29:32;;;;;;;;;;;14.80;99.90;;;;;;5049010;28;20102;-77
2022/06/07 11:32:00;;;;;;;7.80;1.42;;;14.90;99.90;;;;;;5074880;28;19924;-78
2022/06/07 11:34:35;;;;;;;4.85;1.10;;;14.90;99.90;;;;;;5040406;28;20082;-76
2022/06/07 11:37:10;;;;;;;7.10;1.10;;;15.00;99.90;;;;;;5040696;28;20083;-77
2022/06/07 11:39:39;;;;;;;3.97;1.02;;;15.10;99.90;;;;;;5043924;28;20441;-78
2022/06/07 11:42:07;;;;;;;7.38;1.30;;;15.10;99.90;;;;;;5042636;28;20472;-76
2022/06/07 11:44:55;;;;;;;4.72;1.02;;;15.20;99.90;;;;;;5043415;28;20095;-78
2022/06/07 11:47:25;;;;;;;6.50;1.20;;;15.20;99.90;;;;;;5029832;28;20105;-77
2022/06/07 11:49:51;;;;;;;4.85;1.02;;;15.30;99.90;;;;;;5044042;28;20041;-77
2022/06/07 11:52:22;;;;;;;12.85;1.52;;;15.40;99.90;;;;;;5047307;28;20064;-77
2022/06/07 11:55:14;;;;;;;5.10;1.13;;;15.50;99.90;;;;;;5047227;28;20144;-79
2022/06/07 11:58:03;;;;;;;6.95;1.23;;;15.50;99.90;;;;;;5034736;28;20102;-77
2022/06/07 12:00:28;;;;;;;3.95;1.10;;;15.50;99.90;;;;;;5041669;28;20128;-77
2022/06/07 12:02:57;;;;;;;7.38;1.50;;;15.60;99.90;;;;;;5044960;28;20136;-76
2022/06/07 12:05:28;;;;;;;5.25;1.50;;;15.60;99.90;;;;;;5034010;28;20439;-77
2022/06/07 12:07:59;;;;;;;;;;;15.60;99.90;;;;;;5038380;28;20040;-77
2022/06/07 12:10:37;;;;;;;5.60;1.23;;;15.60;99.90;;;;;;5037431;28;20384;-76
2022/06/07 12:13:12;;;;;;;3.63;0.90;;;15.50;99.90;;;;;;5036125;28;20064;-77
2022/06/07 12:15:43;;;;;;;5.68;1.42;;;15.50;99.90;;;;;;5041830;28;20062;-78
2022/06/07 12:18:27;;;;;;;3.95;1.20;;;15.50;99.90;;;;;;5040586;28;20433;-77
2022/06/07 12:20:56;;;;;;;5.32;0.85;;;15.50;99.90;;;;;;5034724;28;20052;-76
2022/06/07 12:23:33;;;;;;;8.50;1.60;;;15.50;99.90;;;;;;5033195;28;20056;-76
2022/06/07 12:26:06;;;;;;;9.20;1.23;;;15.60;99.90;;;;;;5066009;28;20147;-76
2022/06/07 12:28:37;;;;;;;3.72;1.25;;;15.60;99.90;;;;;;5062498;28;20056;-76
2022/06/07 12:31:22;;;;;;;5.63;1.30;;;15.50;99.90;;;;;;5031476;28;20396;-76
2022/06/07 12:33:54;;;;;;;4.32;0.82;;;15.60;99.90;;;;;;5034900;28;20045;-77
2022/06/07 12:36:24;;;;;;;8.00;1.73;;;15.60;99.90;;;;;;5027590;28;20042;-76
2022/06/07 12:38:51;;;;;;;3.10;0.90;;;15.70;99.90;;;;;;5037546;28;20037;-77
2022/06/07 12:41:22;;;;;;;6.38;1.55;;;15.70;99.90;;;;;;5035813;28;20088;-77
2022/06/07 12:43:54;;;;;;;3.43;0.90;;;15.80;99.90;;;;;;5032752;28;20210;-77
2022/06/07 12:46:24;;;;;;;4.57;1.35;;;15.80;99.90;;;;;;5064682;28;20072;-77
2022/06/07 12:48:51;;;;;;;4.40;1.10;;;15.80;99.90;;;;;;5033024;28;20045;-76
2022/06/07 12:51:24;;;;;;;6.80;1.15;;;15.80;99.90;;;;;;5038095;28;20753;-77
2022/06/07 12:53:58;;;;;;;8.95;1.30;;;15.80;99.90;;;;;;5034565;28;20675;-78
2022/06/07 12:56:28;;;;;;;6.40;1.67;;;15.80;99.90;;;;;;5035529;28;20060;-76
2022/06/07 12:58:57;;;;;;;11.77;2.10;;;15.80;99.90;;;;;;5037638;28;20545;-77
2022/06/07 13:01:34;;;;;;;9.63;2.38;;;15.90;99.90;;;;;;5036979;28;20060;-76
2022/06/07 13:04:24;;;;;;;8.60;1.63;;;15.90;99.90;;;;;;5043938;28;20090;-76
2022/06/07 13:07:22;;;;;;;6.90;1.65;;;16.00;99.90;;;;;;5038400;28;20061;-77
2022/06/07 13:09:53;;;;;;;10.77;2.15;;;16.30;99.90;;;;;;5050825;28;20044;-77
2022/06/07 13:12:33;;;;;;;8.93;2.15;;;16.40;99.90;;;;;;5046788;28;20041;-76
2022/06/07 13:15:01;;;;;;;6.38;1.30;;;16.50;99.90;;;;;;5043759;28;20124;-76
2022/06/07 13:17:29;;;;;;;5.97;1.67;;;16.50;99.90;;;;;;5039383;28;20091;-75
2022/06/07 13:19:55;;;;;;;3.50;1.10;;;16.40;99.90;;;;;;5037192;28;20065;-76
2022/06/07 13:22:23;;;;;;;4.93;1.27;;;16.40;99.90;;;;;;5039655;28;20060;-76
2022/06/07 13:24:56;;;;;;;6.07;1.48;;;16.40;99.90;;;;;;5039123;28;20045;-76